createdAt,value
2023-01-17T11:39:28.624Z,141988.88
2023-01-17T11:44:33.197Z,141455.94
2023-01-17T11:49:37.079Z,141274.78
2023-01-17T11:54:45.089Z,141182.44
2023-01-17T11:59:48.850Z,141106.13
2023-01-17T12:05:01.865Z,141141.81
2023-01-17T12:10:10.724Z,141150.41
2023-01-17T12:15:23.198Z,141162.72
2023-01-17T12:20:34.465Z,141149.19
2023-01-17T12:25:48.636Z,141165.16
2023-01-17T12:30:58.758Z,141194.72
2023-01-17T12:36:04.066Z,141216.91
2023-01-17T12:41:13.408Z,141268.63
2023-01-17T12:46:24.272Z,141331.44
2023-01-17T12:51:31.342Z,141347.47
2023-01-17T12:56:38.464Z,141326.53
2023-01-17T13:01:45.281Z,141321.59
2023-01-17T13:07:02.560Z,141298.19
2023-01-17T13:12:11.325Z,141274.78
2023-01-17T13:17:24.951Z,141316.69
2023-01-17T13:22:31.761Z,141313.00
2023-01-17T13:27:45.250Z,141317.91
2023-01-17T13:33:01.596Z,141283.44
2023-01-17T13:38:22.907Z,141295.72
2023-01-17T13:43:29.611Z,141306.78
2023-01-17T13:48:33.887Z,141315.44
2023-01-17T13:53:56.275Z,141288.34
2023-01-17T13:59:19.659Z,141232.91
2023-01-17T14:04:24.901Z,141244.00
2023-01-17T14:09:31.378Z,141226.78
2023-01-17T14:14:46.330Z,141177.50
2023-01-17T14:19:52.264Z,141133.16
2023-01-17T14:24:58.240Z,141219.34
2023-01-17T14:30:02.783Z,141176.28
2023-01-17T14:35:21.584Z,141162.72
2023-01-17T14:40:30.821Z,141172.59
2023-01-17T14:45:35.169Z,141163.94
2023-01-17T14:50:41.057Z,141117.25
2023-01-17T14:55:51.752Z,141101.22
2023-01-17T15:01:21.327Z,141114.78
2023-01-17T15:06:29.054Z,141118.41
2023-01-17T15:11:34.838Z,141088.94
2023-01-17T15:16:54.334Z,141065.53
2023-01-17T15:22:01.790Z,140994.13
2023-01-17T15:27:06.220Z,140956.03
2023-01-17T15:32:17.022Z,140962.16
2023-01-17T15:37:28.398Z,140952.34
2023-01-17T15:42:32.435Z,140905.56
2023-01-17T15:47:37.974Z,140853.91
2023-01-17T15:52:50.218Z,140833.00
2023-01-17T15:57:53.684Z,140804.72
2023-01-17T16:02:59.414Z,140781.41
2023-01-17T16:08:21.621Z,140728.59
2023-01-17T16:13:26.473Z,140686.78
2023-01-17T16:18:29.995Z,140649.94
2023-01-17T16:23:33.425Z,140636.38
2023-01-17T16:28:38.313Z,140609.34
2023-01-17T16:33:43.091Z,140581.09
2023-01-17T16:38:53.482Z,140563.94
2023-01-17T16:44:02.908Z,140540.59
2023-01-17T16:49:09.130Z,140516.03
2023-01-17T16:54:12.483Z,140508.66
2023-01-17T16:59:17.675Z,140484.09
2023-01-17T17:04:21.145Z,140457.13
2023-01-17T17:09:24.756Z,140441.16
2023-01-17T17:14:29.711Z,140431.34
2023-01-17T17:19:33.599Z,140405.56
2023-01-17T17:24:39.527Z,140398.22
2023-01-17T17:29:44.460Z,140389.63
2023-01-17T17:34:51.036Z,140383.47
2023-01-17T17:39:54.430Z,140368.75
2023-01-17T17:44:59.193Z,140361.41
2023-01-17T17:50:04.911Z,140366.31
2023-01-17T17:55:08.571Z,140365.09
2023-01-17T18:00:14.366Z,140351.56
2023-01-17T18:05:17.956Z,140350.34
2023-01-17T18:10:21.386Z,140302.47
2023-01-17T18:15:26.232Z,140274.25
2023-01-17T18:20:29.863Z,140259.56
2023-01-17T18:25:36.534Z,140265.69
2023-01-17T18:30:41.448Z,140230.13
2023-01-17T18:35:54.120Z,140230.13
2023-01-17T18:41:02.958Z,140239.91
2023-01-17T18:46:08.553Z,140226.44
2023-01-17T18:51:13.072Z,140214.16
2023-01-17T18:56:18.014Z,140209.25
2023-01-17T19:01:23.789Z,140170.06
2023-01-17T19:06:28.872Z,140167.63
2023-01-17T19:11:36.427Z,140167.63
2023-01-17T19:16:52.923Z,140165.19
2023-01-17T19:21:56.894Z,140149.22
2023-01-17T19:27:00.931Z,140135.75
2023-01-17T19:32:09.695Z,140128.34
2023-01-17T19:37:14.448Z,140124.69
2023-01-17T19:42:18.109Z,140110.00
2023-01-17T19:47:22.921Z,140111.22
2023-01-17T19:52:26.304Z,140105.06
2023-01-17T19:57:34.695Z,140091.59
2023-01-17T20:02:39.956Z,140091.59
2023-01-17T20:07:43.483Z,140080.56
2023-01-17T20:12:47.003Z,140071.97
2023-01-17T20:17:51.781Z,140064.63
2023-01-17T20:22:55.519Z,140048.66
2023-01-17T20:27:59.234Z,140027.88
2023-01-17T20:33:04.435Z,140008.25
2023-01-17T20:38:10.474Z,139996.00
2023-01-17T20:43:14.169Z,139986.19
2023-01-17T20:48:20.798Z,139977.59
2023-01-17T20:53:24.327Z,139969.06
2023-01-17T20:58:27.967Z,139939.59
2023-01-17T21:03:34.356Z,139910.25
2023-01-17T21:08:38.559Z,139888.22
2023-01-17T21:13:44.528Z,139900.47
2023-01-17T21:18:50.010Z,139878.41
2023-01-17T21:23:57.279Z,139885.78
2023-01-17T21:29:08.143Z,139894.34
2023-01-17T21:34:13.638Z,139882.06
2023-01-17T21:39:25.058Z,139867.41
2023-01-17T21:44:35.829Z,139866.19
2023-01-17T21:49:41.013Z,139862.50
2023-01-17T21:55:01.843Z,139871.06
2023-01-17T22:00:06.390Z,139864.97
2023-01-17T22:05:18.037Z,139835.56
2023-01-17T22:10:21.477Z,139831.91
2023-01-17T22:15:25.175Z,139812.28
2023-01-17T22:20:29.955Z,139801.28
2023-01-17T22:25:35.868Z,139796.34
2023-01-17T22:30:39.259Z,139769.41
2023-01-17T22:36:14.606Z,139757.19
2023-01-17T22:41:21.271Z,139738.81
2023-01-17T22:46:25.505Z,139727.81
2023-01-17T22:51:30.610Z,139730.25
